sensor_id;sensor_type;location;lat;lon;timestamp;pressure;altitude;pressure_sealevel;temperature;humidity
59971;BME280;45825;45.434;9.116;2022-12-11T00:01:22;98531.94;;;2.14;100.00
59971;BME280;45825;45.434;9.116;2022-12-11T00:03:48;98530.03;;;2.18;100.00
59971;BME280;45825;45.434;9.116;2022-12-11T00:06:17;98535.31;;;2.34;100.00
59971;BME280;45825;45.434;9.116;2022-12-11T00:08:43;98521.25;;;2.38;100.00
59971;BME280;45825;45.434;9.116;2022-12-11T00:11:11;98528.56;;;2.30;100.00
59971;BME280;45825;45.434;9.116;2022-12-11T00:13:36;98519.97;;;2.29;100.00
59971;BME280;45825;45.434;9.116;2022-12-11T00:16:02;98522.63;;;2.28;100.00
59971;BME280;45825;45.434;9.116;2022-12-11T00:18:28;98534.75;;;2.27;100.00
59971;BME280;45825;45.434;9.116;2022-12-11T00:20:53;98533.38;;;2.37;100.00
59971;BME280;45825;45.434;9.116;2022-12-11T00:23:18;98523.28;;;2.14;100.00
59971;BME280;45825;45.434;9.116;2022-12-11T00:25:45;98526.97;;;2.09;100.00
59971;BME280;45825;45.434;9.116;2022-12-11T00:28:13;98521.94;;;2.06;100.00
59971;BME280;45825;45.434;9.116;2022-12-11T00:30:40;98522.00;;;2.05;100.00
59971;BME280;45825;45.434;9.116;2022-12-11T00:33:06;98530.09;;;2.16;100.00
59971;BME280;45825;45.434;9.116;2022-12-11T00:35:32;98523.59;;;2.25;100.00
59971;BME280;45825;45.434;9.116;2022-12-11T00:37:57;98524.94;;;2.34;100.00
59971;BME280;45825;45.434;9.116;2022-12-11T00:40:22;98520.72;;;2.31;100.00
59971;BME280;45825;45.434;9.116;2022-12-11T00:42:48;98524.53;;;2.24;100.00
59971;BME280;45825;45.434;9.116;2022-12-11T00:45:13;98524.00;;;2.17;100.00
59971;BME280;45825;45.434;9.116;2022-12-11T00:47:38;98516.97;;;2.02;100.00
59971;BME280;45825;45.434;9.116;2022-12-11T00:50:04;98522.16;;;2.02;100.00
59971;BME280;45825;45.434;9.116;2022-12-11T00:52:30;98528.59;;;1.93;100.00
59971;BME280;45825;45.434;9.116;2022-12-11T00:54:55;98537.13;;;1.95;100.00
59971;BME280;45825;45.434;9.116;2022-12-11T00:57:20;98542.97;;;2.00;100.00
59971;BME280;45825;45.434;9.116;2022-12-11T00:59:45;98536.81;;;2.03;100.00
59971;BME280;45825;45.434;9.116;2022-12-11T01:02:11;98552.28;;;2.04;100.00
59971;BME280;45825;45.434;9.116;2022-12-11T01:04:37;98548.69;;;2.07;100.00
59971;BME280;45825;45.434;9.116;2022-12-11T01:07:02;98558.09;;;2.09;100.00
59971;BME280;45825;45.434;9.116;2022-12-11T01:09:27;98560.47;;;2.14;100.00
59971;BME280;45825;45.434;9.116;2022-12-11T01:12:11;98555.03;;;2.01;100.00
59971;BME280;45825;45.434;9.116;2022-12-11T01:14:37;98551.34;;;2.05;100.00
59971;BME280;45825;45.434;9.116;2022-12-11T01:17:02;98556.28;;;2.12;100.00
59971;BME280;45825;45.434;9.116;2022-12-11T01:19:27;98551.63;;;2.18;100.00
59971;BME280;45825;45.434;9.116;2022-12-11T01:21:53;98555.56;;;2.08;100.00
59971;BME280;45825;45.434;9.116;2022-12-11T01:24:18;98558.72;;;2.15;100.00
59971;BME280;45825;45.434;9.116;2022-12-11T01:26:43;98548.41;;;2.13;100.00
59971;BME280;45825;45.434;9.116;2022-12-11T01:29:09;98549.56;;;2.07;100.00
59971;BME280;45825;45.434;9.116;2022-12-11T01:31:34;98546.66;;;2.14;100.00
59971;BME280;45825;45.434;9.116;2022-12-11T01:33:59;98547.88;;;2.06;100.00
59971;BME280;45825;45.434;9.116;2022-12-11T01:36:25;98554.75;;;2.07;100.00
59971;BME280;45825;45.434;9.116;2022-12-11T01:38:50;98562.97;;;1.98;100.00
59971;BME280;45825;45.434;9.116;2022-12-11T01:41:18;98567.72;;;1.88;100.00
59971;BME280;45825;45.434;9.116;2022-12-11T01:46:21;98573.28;;;1.80;100.00
59971;BME280;45825;45.434;9.116;2022-12-11T01:48:47;98573.47;;;1.95;100.00
59971;BME280;45825;45.434;9.116;2022-12-11T01:51:13;98572.66;;;1.75;100.00
59971;BME280;45825;45.434;9.116;2022-12-11T01:53:41;98573.13;;;1.64;100.00
59971;BME280;45825;45.434;9.116;2022-12-11T01:56:09;98581.47;;;1.71;100.00
59971;BME280;45825;45.434;9.116;2022-12-11T01:58:45;98579.16;;;1.84;100.00
59971;BME280;45825;45.434;9.116;2022-12-11T02:01:19;98580.44;;;1.75;100.00
59971;BME280;45825;45.434;9.116;2022-12-11T02:03:46;98582.13;;;1.76;100.00
59971;BME280;45825;45.434;9.116;2022-12-11T02:06:39;98592.34;;;1.79;100.00
59971;BME280;45825;45.434;9.116;2022-12-11T02:09:07;98599.41;;;1.76;100.00
59971;BME280;45825;45.434;9.116;2022-12-11T02:11:42;98595.91;;;1.77;100.00
59971;BME280;45825;45.434;9.116;2022-12-11T02:14:19;98608.31;;;1.70;100.00
59971;BME280;45825;45.434;9.116;2022-12-11T02:16:56;98601.97;;;1.77;100.00
59971;BME280;45825;45.434;9.116;2022-12-11T02:19:51;98603.06;;;1.72;100.00
59971;BME280;45825;45.434;9.116;2022-12-11T02:25:30;98613.09;;;1.60;100.00
59971;BME280;45825;45.434;9.116;2022-12-11T02:28:26;98616.66;;;1.58;100.00
59971;BME280;45825;45.434;9.116;2022-12-11T02:31:00;98621.69;;;1.61;100.00
59971;BME280;45825;45.434;9.116;2022-12-11T02:33:51;98622.56;;;1.61;100.00
59971;BME280;45825;45.434;9.116;2022-12-11T02:36:20;98626.69;;;1.65;100.00
59971;BME280;45825;45.434;9.116;2022-12-11T02:38:51;98623.25;;;1.65;100.00
59971;BME280;45825;45.434;9.116;2022-12-11T02:41:19;98621.00;;;1.57;100.00
59971;BME280;45825;45.434;9.116;2022-12-11T02:43:46;98622.75;;;1.57;100.00
59971;BME280;45825;45.434;9.116;2022-12-11T02:46:14;98626.47;;;1.70;100.00
59971;BME280;45825;45.434;9.116;2022-12-11T02:48:41;98629.56;;;1.78;100.00
59971;BME280;45825;45.434;9.116;2022-12-11T02:51:08;98631.41;;;1.76;100.00
59971;BME280;45825;45.434;9.116;2022-12-11T02:53:37;98633.34;;;1.71;100.00
59971;BME280;45825;45.434;9.116;2022-12-11T02:58:41;98632.16;;;1.78;100.00
59971;BME280;45825;45.434;9.116;2022-12-11T03:01:10;98636.38;;;1.81;100.00
59971;BME280;45825;45.434;9.116;2022-12-11T03:03:35;98636.22;;;1.84;100.00
59971;BME280;45825;45.434;9.116;2022-12-11T03:06:00;98627.47;;;1.87;100.00
59971;BME280;45825;45.434;9.116;2022-12-11T03:08:26;98624.59;;;1.93;100.00
59971;BME280;45825;45.434;9.116;2022-12-11T03:10:51;98617.66;;;1.74;100.00
59971;BME280;45825;45.434;9.116;2022-12-11T03:13:18;98624.94;;;1.66;100.00
59971;BME280;45825;45.434;9.116;2022-12-11T03:15:58;98620.88;;;1.60;100.00
59971;BME280;45825;45.434;9.116;2022-12-11T03:18:38;98621.78;;;1.59;100.00
59971;BME280;45825;45.434;9.116;2022-12-11T03:21:17;98635.31;;;1.47;100.00
59971;BME280;45825;45.434;9.116;2022-12-11T03:23:56;98624.84;;;1.48;100.00
59971;BME280;45825;45.434;9.116;2022-12-11T03:26:27;98628.09;;;1.53;100.00
59971;BME280;45825;45.434;9.116;2022-12-11T03:29:04;98623.25;;;1.65;100.00
59971;BME280;45825;45.434;9.116;2022-12-11T03:31:43;98624.03;;;1.67;100.00
59971;BME280;45825;45.434;9.116;2022-12-11T03:34:15;98621.84;;;1.77;100.00
59971;BME280;45825;45.434;9.116;2022-12-11T03:36:42;98627.19;;;1.74;100.00
59971;BME280;45825;45.434;9.116;2022-12-11T03:39:14;98627.34;;;1.71;100.00
59971;BME280;45825;45.434;9.116;2022-12-11T03:41:41;98633.09;;;1.77;100.00
59971;BME280;45825;45.434;9.116;2022-12-11T03:44:09;98634.81;;;1.77;100.00
59971;BME280;45825;45.434;9.116;2022-12-11T03:46:37;98635.53;;;1.61;100.00
59971;BME280;45825;45.434;9.116;2022-12-11T03:49:13;98643.44;;;1.58;100.00
59971;BME280;45825;45.434;9.116;2022-12-11T03:51:41;98651.06;;;1.61;100.00
59971;BME280;45825;45.434;9.116;2022-12-11T03:54:09;98648.34;;;1.64;100.00
59971;BME280;45825;45.434;9.116;2022-12-11T03:56:35;98648.13;;;1.69;100.00
59971;BME280;45825;45.434;9.116;2022-12-11T03:59:02;98645.00;;;1.81;100.00
59971;BME280;45825;45.434;9.116;2022-12-11T04:01:27;98649.41;;;1.99;100.00
59971;BME280;45825;45.434;9.116;2022-12-11T04:03:53;98650.53;;;1.93;100.00
59971;BME280;45825;45.434;9.116;2022-12-11T04:06:18;98650.75;;;2.07;100.00
59971;BME280;45825;45.434;9.116;2022-12-11T04:08:43;98650.81;;;2.06;100.00
59971;BME280;45825;45.434;9.116;2022-12-11T04:11:09;98644.09;;;2.02;100.00
59971;BME280;45825;45.434;9.116;2022-12-11T04:13:53;98647.47;;;2.04;100.00
59971;BME280;45825;45.434;9.116;2022-12-11T04:16:37;98646.41;;;2.08;100.00
59971;BME280;45825;45.434;9.116;2022-12-11T04:19:03;98652.84;;;2.18;100.00
59971;BME280;45825;45.434;9.116;2022-12-11T04:21:48;98653.13;;;2.31;100.00
59971;BME280;45825;45.434;9.116;2022-12-11T04:24:32;98650.16;;;2.39;100.00
59971;BME280;45825;45.434;9.116;2022-12-11T04:26:58;98656.25;;;2.38;100.00
59971;BME280;45825;45.434;9.116;2022-12-11T04:29:23;98652.41;;;2.28;100.00
59971;BME280;45825;45.434;9.116;2022-12-11T04:31:48;98656.88;;;2.43;100.00
59971;BME280;45825;45.434;9.116;2022-12-11T04:34:15;98644.22;;;2.55;100.00
59971;BME280;45825;45.434;9.116;2022-12-11T04:36:40;98654.00;;;2.49;100.00
59971;BME280;45825;45.434;9.116;2022-12-11T04:39:05;98648.09;;;2.46;100.00
59971;BME280;45825;45.434;9.116;2022-12-11T04:41:32;98658.13;;;2.54;100.00
59971;BME280;45825;45.434;9.116;2022-12-11T04:43:57;98655.63;;;2.52;100.00
59971;BME280;45825;45.434;9.116;2022-12-11T04:46:23;98656.44;;;2.53;100.00
59971;BME280;45825;45.434;9.116;2022-12-11T04:48:49;98657.13;;;2.56;100.00
59971;BME280;45825;45.434;9.116;2022-12-11T04:51:15;98660.28;;;2.63;100.00
59971;BME280;45825;45.434;9.116;2022-12-11T04:53:41;98661.66;;;2.70;100.00
59971;BME280;45825;45.434;9.116;2022-12-11T04:56:08;98657.78;;;2.79;100.00
59971;BME280;45825;45.434;9.116;2022-12-11T04:58:34;98665.56;;;2.61;100.00
59971;BME280;45825;45.434;9.116;2022-12-11T05:01:15;98660.56;;;2.20;100.00
59971;BME280;45825;45.434;9.116;2022-12-11T05:03:41;98663.66;;;2.28;100.00
59971;BME280;45825;45.434;9.116;2022-12-11T05:06:07;98667.34;;;2.42;100.00
59971;BME280;45825;45.434;9.116;2022-12-11T05:08:34;98661.03;;;2.47;100.00
59971;BME280;45825;45.434;9.116;2022-12-11T05:11:02;98663.25;;;2.55;100.00
59971;BME280;45825;45.434;9.116;2022-12-11T05:13:28;98657.19;;;2.55;100.00
59971;BME280;45825;45.434;9.116;2022-12-11T05:15:54;98655.09;;;2.63;100.00
59971;BME280;45825;45.434;9.116;2022-12-11T05:18:19;98656.38;;;2.54;100.00
59971;BME280;45825;45.434;9.116;2022-12-11T05:20:57;98654.38;;;2.59;100.00
59971;BME280;45825;45.434;9.116;2022-12-11T05:23:23;98660.00;;;2.69;100.00
59971;BME280;45825;45.434;9.116;2022-12-11T05:25:57;98652.41;;;2.64;100.00
59971;BME280;45825;45.434;9.116;2022-12-11T05:28:24;98658.91;;;2.73;100.00
59971;BME280;45825;45.434;9.116;2022-12-11T05:33:24;98655.41;;;2.92;100.00
59971;BME280;45825;45.434;9.116;2022-12-11T05:35:50;98665.66;;;2.95;100.00
59971;BME280;45825;45.434;9.116;2022-12-11T05:38:16;98675.22;;;2.95;100.00
59971;BME280;45825;45.434;9.116;2022-12-11T05:40:41;98679.97;;;3.04;100.00
59971;BME280;45825;45.434;9.116;2022-12-11T05:43:07;98679.66;;;3.10;100.00
59971;BME280;45825;45.434;9.116;2022-12-11T05:45:32;98675.16;;;3.14;100.00
59971;BME280;45825;45.434;9.116;2022-12-11T05:47:58;98683.63;;;3.17;100.00
59971;BME280;45825;45.434;9.116;2022-12-11T05:50:23;98679.94;;;3.21;100.00
59971;BME280;45825;45.434;9.116;2022-12-11T05:52:48;98687.47;;;3.28;100.00
59971;BME280;45825;45.434;9.116;2022-12-11T05:55:14;98679.84;;;3.41;100.00
59971;BME280;45825;45.434;9.116;2022-12-11T05:57:39;98683.13;;;3.44;100.00
59971;BME280;45825;45.434;9.116;2022-12-11T06:00:05;98688.28;;;3.46;100.00
59971;BME280;45825;45.434;9.116;2022-12-11T06:02:33;98693.25;;;3.51;100.00
59971;BME280;45825;45.434;9.116;2022-12-11T06:04:59;98691.22;;;3.56;100.00
59971;BME280;45825;45.434;9.116;2022-12-11T06:07:24;98697.97;;;3.60;100.00
59971;BME280;45825;45.434;9.116;2022-12-11T06:09:49;98691.63;;;3.66;100.00
59971;BME280;45825;45.434;9.116;2022-12-11T06:12:15;98684.59;;;3.84;100.00
59971;BME280;45825;45.434;9.116;2022-12-11T06:14:40;98673.84;;;3.74;100.00
59971;BME280;45825;45.434;9.116;2022-12-11T06:17:05;98676.75;;;3.68;100.00
59971;BME280;45825;45.434;9.116;2022-12-11T06:19:31;98671.78;;;3.63;100.00
59971;BME280;45825;45.434;9.116;2022-12-11T06:21:56;98683.19;;;3.60;100.00
59971;BME280;45825;45.434;9.116;2022-12-11T06:24:22;98682.44;;;3.58;100.00
59971;BME280;45825;45.434;9.116;2022-12-11T06:26:47;98684.81;;;3.63;100.00
59971;BME280;45825;45.434;9.116;2022-12-11T06:29:12;98681.28;;;3.64;100.00
59971;BME280;45825;45.434;9.116;2022-12-11T06:31:38;98682.19;;;3.63;100.00
59971;BME280;45825;45.434;9.116;2022-12-11T06:34:03;98682.59;;;3.55;100.00
59971;BME280;45825;45.434;9.116;2022-12-11T06:36:29;98691.47;;;3.51;100.00
59971;BME280;45825;45.434;9.116;2022-12-11T06:38:54;98694.22;;;3.48;100.00
59971;BME280;45825;45.434;9.116;2022-12-11T06:41:19;98695.22;;;3.45;100.00
59971;BME280;45825;45.434;9.116;2022-12-11T06:43:45;98698.16;;;3.39;100.00
59971;BME280;45825;45.434;9.116;2022-12-11T06:46:12;98704.81;;;3.27;100.00
59971;BME280;45825;45.434;9.116;2022-12-11T06:48:39;98706.66;;;3.25;100.00
59971;BME280;45825;45.434;9.116;2022-12-11T06:51:08;98705.41;;;3.15;100.00
59971;BME280;45825;45.434;9.116;2022-12-11T06:53:34;98710.69;;;3.13;100.00
59971;BME280;45825;45.434;9.116;2022-12-11T06:56:05;98710.78;;;3.12;100.00
59971;BME280;45825;45.434;9.116;2022-12-11T06:58:32;98713.38;;;3.12;100.00
59971;BME280;45825;45.434;9.116;2022-12-11T07:00:58;98721.69;;;3.01;100.00
59971;BME280;45825;45.434;9.116;2022-12-11T07:03:23;98713.13;;;2.99;100.00
59971;BME280;45825;45.434;9.116;2022-12-11T07:05:49;98728.78;;;2.97;100.00
59971;BME280;45825;45.434;9.116;2022-12-11T07:08:14;98728.03;;;2.95;100.00
59971;BME280;45825;45.434;9.116;2022-12-11T07:10:40;98733.16;;;2.97;100.00
59971;BME280;45825;45.434;9.116;2022-12-11T07:13:05;98739.50;;;2.91;100.00
59971;BME280;45825;45.434;9.116;2022-12-11T07:15:31;98741.41;;;2.87;100.00
59971;BME280;45825;45.434;9.116;2022-12-11T07:17:56;98747.56;;;2.85;100.00
59971;BME280;45825;45.434;9.116;2022-12-11T07:20:21;98748.44;;;2.85;100.00
59971;BME280;45825;45.434;9.116;2022-12-11T07:22:47;98741.56;;;2.84;100.00
59971;BME280;45825;45.434;9.116;2022-12-11T07:25:13;98744.75;;;2.89;100.00
59971;BME280;45825;45.434;9.116;2022-12-11T07:27:38;98736.03;;;2.90;100.00
59971;BME280;45825;45.434;9.116;2022-12-11T07:30:04;98746.59;;;2.87;100.00
59971;BME280;45825;45.434;9.116;2022-12-11T07:32:29;98748.34;;;2.87;100.00
59971;BME280;45825;45.434;9.116;2022-12-11T07:34:54;98741.47;;;2.86;100.00
59971;BME280;45825;45.434;9.116;2022-12-11T07:37:23;98748.72;;;2.79;100.00
59971;BME280;45825;45.434;9.116;2022-12-11T07:39:48;98749.41;;;2.83;100.00
59971;BME280;45825;45.434;9.116;2022-12-11T07:42:13;98756.94;;;2.89;100.00
59971;BME280;45825;45.434;9.116;2022-12-11T07:44:38;98761.91;;;2.93;100.00
59971;BME280;45825;45.434;9.116;2022-12-11T07:47:04;98759.97;;;2.97;100.00
59971;BME280;45825;45.434;9.116;2022-12-11T07:49:29;98765.66;;;3.05;100.00
59971;BME280;45825;45.434;9.116;2022-12-11T07:51:55;98768.03;;;3.10;100.00
59971;BME280;45825;45.434;9.116;2022-12-11T07:54:20;98775.75;;;3.12;100.00
59971;BME280;45825;45.434;9.116;2022-12-11T07:56:46;98782.19;;;3.22;100.00
59971;BME280;45825;45.434;9.116;2022-12-11T07:59:12;98780.97;;;3.29;100.00
59971;BME280;45825;45.434;9.116;2022-12-11T08:01:38;98782.19;;;3.22;100.00
59971;BME280;45825;45.434;9.116;2022-12-11T08:04:06;98788.69;;;3.31;100.00
59971;BME280;45825;45.434;9.116;2022-12-11T08:06:34;98791.94;;;3.36;100.00
59971;BME280;45825;45.434;9.116;2022-12-11T08:09:02;98788.19;;;3.42;100.00
59971;BME280;45825;45.434;9.116;2022-12-11T08:11:28;98791.31;;;3.48;100.00
59971;BME280;45825;45.434;9.116;2022-12-11T08:13:54;98797.19;;;3.52;100.00
59971;BME280;45825;45.434;9.116;2022-12-11T08:16:20;98791.53;;;3.61;100.00
59971;BME280;45825;45.434;9.116;2022-12-11T08:18:46;98806.69;;;3.53;100.00
59971;BME280;45825;45.434;9.116;2022-12-11T08:21:20;98812.59;;;3.39;100.00
59971;BME280;45825;45.434;9.116;2022-12-11T08:23:46;98812.34;;;3.44;100.00
59971;BME280;45825;45.434;9.116;2022-12-11T08:26:15;98817.63;;;3.42;100.00
59971;BME280;45825;45.434;9.116;2022-12-11T08:28:42;98811.06;;;3.53;100.00
59971;BME280;45825;45.434;9.116;2022-12-11T08:31:08;98817.94;;;3.54;100.00
59971;BME280;45825;45.434;9.116;2022-12-11T08:33:35;98819.06;;;3.48;100.00
59971;BME280;45825;45.434;9.116;2022-12-11T08:36:03;98817.41;;;3.47;100.00
59971;BME280;45825;45.434;9.116;2022-12-11T08:38:28;98822.75;;;3.44;100.00
59971;BME280;45825;45.434;9.116;2022-12-11T08:40:54;98827.66;;;3.50;100.00
59971;BME280;45825;45.434;9.116;2022-12-11T08:43:19;98830.94;;;3.54;100.00
59971;BME280;45825;45.434;9.116;2022-12-11T08:45:45;98831.78;;;3.54;100.00
59971;BME280;45825;45.434;9.116;2022-12-11T08:48:10;98830.09;;;3.71;100.00
59971;BME280;45825;45.434;9.116;2022-12-11T08:50:36;98824.38;;;3.82;98.70
59971;BME280;45825;45.434;9.116;2022-12-11T08:53:01;98826.28;;;3.96;90.18
59971;BME280;45825;45.434;9.116;2022-12-11T08:55:27;98830.53;;;4.14;77.15
59971;BME280;45825;45.434;9.116;2022-12-11T08:57:52;98818.41;;;4.31;71.38
59971;BME280;45825;45.434;9.116;2022-12-11T09:00:17;98816.06;;;4.42;65.27
59971;BME280;45825;45.434;9.116;2022-12-11T09:02:44;98827.94;;;4.48;61.57
59971;BME280;45825;45.434;9.116;2022-12-11T09:05:09;98832.38;;;4.46;65.59
59971;BME280;45825;45.434;9.116;2022-12-11T09:07:36;98834.75;;;4.51;64.67
59971;BME280;45825;45.434;9.116;2022-12-11T09:10:03;98827.09;;;4.64;57.91
59971;BME280;45825;45.434;9.116;2022-12-11T09:12:28;98828.03;;;4.79;52.43
59971;BME280;45825;45.434;9.116;2022-12-11T09:14:54;98833.41;;;4.75;57.05
59971;BME280;45825;45.434;9.116;2022-12-11T09:17:19;98835.16;;;4.75;59.28
59971;BME280;45825;45.434;9.116;2022-12-11T09:19:44;98835.69;;;4.98;50.98
59971;BME280;45825;45.434;9.116;2022-12-11T09:22:10;98835.44;;;5.02;49.67
59971;BME280;45825;45.434;9.116;2022-12-11T09:24:37;98842.81;;;5.42;44.92
59971;BME280;45825;45.434;9.116;2022-12-11T09:27:03;98832.75;;;5.51;42.50
59971;BME280;45825;45.434;9.116;2022-12-11T09:29:28;98830.31;;;5.48;44.43
59971;BME280;45825;45.434;9.116;2022-12-11T09:31:53;98836.66;;;5.43;45.16
59971;BME280;45825;45.434;9.116;2022-12-11T09:34:19;98843.63;;;5.43;47.72
59971;BME280;45825;45.434;9.116;2022-12-11T09:36:45;98838.94;;;5.34;46.62
59971;BME280;45825;45.434;9.116;2022-12-11T09:39:11;98838.09;;;5.33;49.83
59971;BME280;45825;45.434;9.116;2022-12-11T09:44:45;98835.91;;;6.03;40.26
59971;BME280;45825;45.434;9.116;2022-12-11T09:47:25;98839.88;;;5.94;42.21
59971;BME280;45825;45.434;9.116;2022-12-11T09:52:33;98833.25;;;5.88;43.54
59971;BME280;45825;45.434;9.116;2022-12-11T09:55:03;98833.50;;;5.83;45.08
59971;BME280;45825;45.434;9.116;2022-12-11T09:57:45;98840.22;;;5.87;43.47
59971;BME280;45825;45.434;9.116;2022-12-11T10:00:46;98828.81;;;6.05;43.53
59971;BME280;45825;45.434;9.116;2022-12-11T10:03:27;98826.03;;;6.08;44.32
59971;BME280;45825;45.434;9.116;2022-12-11T10:08:29;98819.13;;;6.21;44.90
59971;BME280;45825;45.434;9.116;2022-12-11T10:11:04;98809.91;;;6.30;44.17
59971;BME280;45825;45.434;9.116;2022-12-11T10:16:11;98826.31;;;6.47;41.74
59971;BME280;45825;45.434;9.116;2022-12-11T10:18:39;98821.38;;;6.56;40.89
59971;BME280;45825;45.434;9.116;2022-12-11T10:21:05;98829.84;;;6.60;42.08
59971;BME280;45825;45.434;9.116;2022-12-11T10:23:42;98828.28;;;6.72;40.63
59971;BME280;45825;45.434;9.116;2022-12-11T16:03:25;99022.59;;;5.13;93.08
59971;BME280;45825;45.434;9.116;2022-12-11T16:05:51;99028.34;;;5.20;95.84
59971;BME280;45825;45.434;9.116;2022-12-11T16:08:21;99037.03;;;5.21;94.42
59971;BME280;45825;45.434;9.116;2022-12-11T16:10:47;99035.66;;;5.13;97.86
59971;BME280;45825;45.434;9.116;2022-12-11T16:13:12;99034.03;;;5.11;98.97
59971;BME280;45825;45.434;9.116;2022-12-11T16:15:39;99034.91;;;5.11;100.00
59971;BME280;45825;45.434;9.116;2022-12-11T16:18:08;99043.81;;;5.23;100.00
59971;BME280;45825;45.434;9.116;2022-12-11T16:20:35;99033.88;;;5.14;98.85
59971;BME280;45825;45.434;9.116;2022-12-11T16:23:01;99035.41;;;5.18;100.00
59971;BME280;45825;45.434;9.116;2022-12-11T16:25:26;99037.34;;;5.14;100.00
59971;BME280;45825;45.434;9.116;2022-12-11T16:27:59;99046.00;;;5.15;100.00
59971;BME280;45825;45.434;9.116;2022-12-11T16:30:26;99047.94;;;5.11;100.00
59971;BME280;45825;45.434;9.116;2022-12-11T16:32:52;99043.25;;;5.00;100.00
59971;BME280;45825;45.434;9.116;2022-12-11T16:35:18;99051.94;;;5.01;100.00
59971;BME280;45825;45.434;9.116;2022-12-11T16:37:43;99047.88;;;4.95;100.00
59971;BME280;45825;45.434;9.116;2022-12-11T16:40:09;99054.94;;;4.93;100.00
59971;BME280;45825;45.434;9.116;2022-12-11T16:42:36;99051.47;;;4.93;100.00
59971;BME280;45825;45.434;9.116;2022-12-11T16:45:08;99058.38;;;4.94;100.00
59971;BME280;45825;45.434;9.116;2022-12-11T16:47:34;99065.50;;;4.90;100.00
59971;BME280;45825;45.434;9.116;2022-12-11T16:50:00;99068.13;;;4.90;100.00
59971;BME280;45825;45.434;9.116;2022-12-11T16:52:25;99079.63;;;4.86;100.00
59971;BME280;45825;45.434;9.116;2022-12-11T16:54:51;99072.50;;;4.72;100.00
59971;BME280;45825;45.434;9.116;2022-12-11T16:57:16;99076.09;;;4.69;100.00
59971;BME280;45825;45.434;9.116;2022-12-11T16:59:41;99073.19;;;4.75;100.00
59971;BME280;45825;45.434;9.116;2022-12-11T17:02:09;99075.75;;;4.77;100.00
59971;BME280;45825;45.434;9.116;2022-12-11T17:04:36;99076.84;;;4.71;100.00
59971;BME280;45825;45.434;9.116;2022-12-11T17:07:02;99076.19;;;4.68;100.00
59971;BME280;45825;45.434;9.116;2022-12-11T17:09:27;99077.19;;;4.65;100.00
59971;BME280;45825;45.434;9.116;2022-12-11T17:11:53;99079.78;;;4.65;100.00
59971;BME280;45825;45.434;9.116;2022-12-11T17:14:18;99073.81;;;4.63;100.00
59971;BME280;45825;45.434;9.116;2022-12-11T17:16:44;99072.19;;;4.60;100.00
59971;BME280;45825;45.434;9.116;2022-12-11T17:19:09;99072.25;;;4.59;100.00
59971;BME280;45825;45.434;9.116;2022-12-11T17:21:34;99078.88;;;4.66;100.00
59971;BME280;45825;45.434;9.116;2022-12-11T17:24:01;99075.34;;;4.67;100.00
59971;BME280;45825;45.434;9.116;2022-12-11T17:26:27;99072.97;;;4.63;100.00
59971;BME280;45825;45.434;9.116;2022-12-11T17:28:52;99072.03;;;4.64;100.00
59971;BME280;45825;45.434;9.116;2022-12-11T17:31:18;99074.19;;;4.55;100.00
59971;BME280;45825;45.434;9.116;2022-12-11T17:33:44;99085.38;;;4.57;100.00
59971;BME280;45825;45.434;9.116;2022-12-11T17:36:13;99079.31;;;4.57;100.00
59971;BME280;45825;45.434;9.116;2022-12-11T17:38:39;99077.69;;;4.54;100.00
59971;BME280;45825;45.434;9.116;2022-12-11T17:41:05;99079.94;;;4.62;100.00
59971;BME280;45825;45.434;9.116;2022-12-11T17:43:31;99083.00;;;4.53;100.00
59971;BME280;45825;45.434;9.116;2022-12-11T17:45:57;99081.13;;;4.37;100.00
59971;BME280;45825;45.434;9.116;2022-12-11T17:48:23;99091.66;;;4.36;100.00
59971;BME280;45825;45.434;9.116;2022-12-11T17:50:50;99090.63;;;4.38;100.00
59971;BME280;45825;45.434;9.116;2022-12-11T17:53:17;99087.13;;;4.39;100.00
59971;BME280;45825;45.434;9.116;2022-12-11T17:55:43;99086.44;;;4.36;100.00
59971;BME280;45825;45.434;9.116;2022-12-11T17:58:14;99089.16;;;4.32;100.00
59971;BME280;45825;45.434;9.116;2022-12-11T18:00:44;99095.06;;;4.36;100.00
59971;BME280;45825;45.434;9.116;2022-12-11T18:03:10;99093.50;;;4.33;100.00
59971;BME280;45825;45.434;9.116;2022-12-11T18:05:44;99101.97;;;4.37;100.00
59971;BME280;45825;45.434;9.116;2022-12-11T18:08:14;99103.97;;;4.32;100.00
59971;BME280;45825;45.434;9.116;2022-12-11T18:10:40;99107.78;;;4.25;100.00
59971;BME280;45825;45.434;9.116;2022-12-11T18:13:05;99103.41;;;4.25;100.00
59971;BME280;45825;45.434;9.116;2022-12-11T18:15:30;99105.81;;;4.30;100.00
59971;BME280;45825;45.434;9.116;2022-12-11T18:17:57;99104.94;;;4.29;100.00
59971;BME280;45825;45.434;9.116;2022-12-11T18:20:22;99106.56;;;4.32;100.00
59971;BME280;45825;45.434;9.116;2022-12-11T18:22:48;99110.38;;;4.25;100.00
59971;BME280;45825;45.434;9.116;2022-12-11T18:25:13;99117.59;;;4.19;100.00
59971;BME280;45825;45.434;9.116;2022-12-11T18:27:39;99116.94;;;4.14;100.00
59971;BME280;45825;45.434;9.116;2022-12-11T18:30:04;99115.63;;;4.05;100.00
59971;BME280;45825;45.434;9.116;2022-12-11T18:32:30;99121.53;;;4.09;100.00
59971;BME280;45825;45.434;9.116;2022-12-11T18:34:55;99119.00;;;4.08;100.00
59971;BME280;45825;45.434;9.116;2022-12-11T18:37:20;99129.19;;;4.12;100.00
59971;BME280;45825;45.434;9.116;2022-12-11T18:39:46;99133.53;;;4.12;100.00
59971;BME280;45825;45.434;9.116;2022-12-11T18:42:12;99141.84;;;4.20;100.00
59971;BME280;45825;45.434;9.116;2022-12-11T18:44:37;99147.63;;;4.08;100.00
59971;BME280;45825;45.434;9.116;2022-12-11T18:47:03;99155.84;;;3.98;100.00
59971;BME280;45825;45.434;9.116;2022-12-11T18:49:28;99162.34;;;4.09;100.00
59971;BME280;45825;45.434;9.116;2022-12-11T18:51:54;99164.78;;;3.92;100.00
59971;BME280;45825;45.434;9.116;2022-12-11T18:54:19;99164.94;;;3.89;100.00
59971;BME280;45825;45.434;9.116;2022-12-11T18:56:44;99175.41;;;3.88;100.00
59971;BME280;45825;45.434;9.116;2022-12-11T18:59:11;99181.63;;;3.85;100.00
59971;BME280;45825;45.434;9.116;2022-12-11T19:01:40;99186.38;;;3.75;100.00
59971;BME280;45825;45.434;9.116;2022-12-11T19:04:06;99189.50;;;3.84;100.00